Terminal Aerodrome Forecast
Issued by NWS

Home | Current Version | Previous Version | Text Only | Print | Product List | Glossary On
Versions: 1 2 3 4 5 6 7 8 9 10 11 12 13 14 15 16
000
FTAK31 PAJN 161700
TAFAPG
TAF
PAPG 161726Z 1618/1718 VRB02KT 1/2SM FG BKN002 OVC015
     FM162000 05004KT P6SM FEW010 OVC050
     FM170300 VRB02KT P6SM VCSH OVC060
     FM170900 00000KT 1/2SM FG BKN002
     FM171500 VRB02KT 1SM BR VCSH BKN005
      AMD LTD TO CLD VIS AND WIND 1706/1715=

USA.gov is the U.S. government's official web portal to all federal, state and local government web resources and services.